sensor_id;sensor_type;location;lat;lon;timestamp;P1;durP1;ratioP1;P2;durP2;ratioP2
4812;SDS011;2420;51.202;8.698;2023-04-25T00:00:17;9.30;;;5.35;;
4812;SDS011;2420;51.202;8.698;2023-04-25T00:02:43;8.93;;;5.40;;
4812;SDS011;2420;51.202;8.698;2023-04-25T00:05:09;9.93;;;5.50;;
4812;SDS011;2420;51.202;8.698;2023-04-25T00:07:35;8.05;;;5.53;;
4812;SDS011;2420;51.202;8.698;2023-04-25T00:10:00;10.60;;;6.20;;
4812;SDS011;2420;51.202;8.698;2023-04-25T00:12:26;10.25;;;5.75;;
4812;SDS011;2420;51.202;8.698;2023-04-25T00:14:53;11.93;;;6.43;;
4812;SDS011;2420;51.202;8.698;2023-04-25T00:17:21;10.80;;;5.40;;
4812;SDS011;2420;51.202;8.698;2023-04-25T00:19:49;7.90;;;5.53;;
4812;SDS011;2420;51.202;8.698;2023-04-25T00:22:15;8.45;;;5.68;;
4812;SDS011;2420;51.202;8.698;2023-04-25T00:24:42;9.40;;;6.00;;
4812;SDS011;2420;51.202;8.698;2023-04-25T00:27:08;9.70;;;6.07;;
4812;SDS011;2420;51.202;8.698;2023-04-25T00:29:33;9.20;;;5.70;;
4812;SDS011;2420;51.202;8.698;2023-04-25T00:31:59;10.10;;;5.60;;
4812;SDS011;2420;51.202;8.698;2023-04-25T00:34:25;12.18;;;5.80;;
4812;SDS011;2420;51.202;8.698;2023-04-25T00:36:51;9.23;;;5.65;;
4812;SDS011;2420;51.202;8.698;2023-04-25T00:39:16;12.63;;;5.70;;
4812;SDS011;2420;51.202;8.698;2023-04-25T00:41:42;11.70;;;5.47;;
4812;SDS011;2420;51.202;8.698;2023-04-25T00:44:08;9.48;;;5.35;;
4812;SDS011;2420;51.202;8.698;2023-04-25T00:46:36;10.40;;;5.25;;
4812;SDS011;2420;51.202;8.698;2023-04-25T00:49:02;12.85;;;5.25;;
4812;SDS011;2420;51.202;8.698;2023-04-25T00:51:27;8.75;;;5.20;;
4812;SDS011;2420;51.202;8.698;2023-04-25T00:53:53;9.90;;;5.45;;
4812;SDS011;2420;51.202;8.698;2023-04-25T00:56:19;8.18;;;5.22;;
4812;SDS011;2420;51.202;8.698;2023-04-25T00:58:46;12.52;;;5.30;;
4812;SDS011;2420;51.202;8.698;2023-04-25T01:01:12;11.20;;;5.55;;
4812;SDS011;2420;51.202;8.698;2023-04-25T01:03:38;8.88;;;4.30;;
4812;SDS011;2420;51.202;8.698;2023-04-25T01:06:09;8.40;;;4.90;;
4812;SDS011;2420;51.202;8.698;2023-04-25T01:08:36;8.80;;;4.45;;
4812;SDS011;2420;51.202;8.698;2023-04-25T01:11:03;9.98;;;4.78;;
4812;SDS011;2420;51.202;8.698;2023-04-25T01:13:29;8.23;;;4.68;;
4812;SDS011;2420;51.202;8.698;2023-04-25T01:15:56;9.70;;;4.53;;
4812;SDS011;2420;51.202;8.698;2023-04-25T01:18:22;10.15;;;4.65;;
4812;SDS011;2420;51.202;8.698;2023-04-25T01:20:50;11.35;;;4.28;;
4812;SDS011;2420;51.202;8.698;2023-04-25T01:23:16;8.30;;;4.45;;
4812;SDS011;2420;51.202;8.698;2023-04-25T01:25:43;8.25;;;4.28;;
4812;SDS011;2420;51.202;8.698;2023-04-25T01:28:10;10.52;;;4.35;;
4812;SDS011;2420;51.202;8.698;2023-04-25T01:30:36;8.02;;;4.22;;
4812;SDS011;2420;51.202;8.698;2023-04-25T01:33:02;6.35;;;4.25;;
4812;SDS011;2420;51.202;8.698;2023-04-25T01:35:29;9.52;;;4.00;;
4812;SDS011;2420;51.202;8.698;2023-04-25T01:37:55;7.68;;;4.32;;
4812;SDS011;2420;51.202;8.698;2023-04-25T01:40:21;9.45;;;4.57;;
4812;SDS011;2420;51.202;8.698;2023-04-25T01:42:47;10.18;;;4.35;;
4812;SDS011;2420;51.202;8.698;2023-04-25T01:45:13;6.40;;;3.83;;
4812;SDS011;2420;51.202;8.698;2023-04-25T01:47:39;11.13;;;4.45;;
4812;SDS011;2420;51.202;8.698;2023-04-25T01:50:07;11.30;;;4.43;;
4812;SDS011;2420;51.202;8.698;2023-04-25T01:52:33;9.77;;;4.28;;
4812;SDS011;2420;51.202;8.698;2023-04-25T01:54:59;10.13;;;4.75;;
4812;SDS011;2420;51.202;8.698;2023-04-25T01:57:26;9.43;;;4.13;;
4812;SDS011;2420;51.202;8.698;2023-04-25T01:59:53;10.27;;;4.50;;
4812;SDS011;2420;51.202;8.698;2023-04-25T02:02:24;6.95;;;3.60;;
4812;SDS011;2420;51.202;8.698;2023-04-25T02:04:51;7.57;;;3.97;;
4812;SDS011;2420;51.202;8.698;2023-04-25T02:07:16;7.25;;;4.10;;
4812;SDS011;2420;51.202;8.698;2023-04-25T02:09:42;8.57;;;3.88;;
4812;SDS011;2420;51.202;8.698;2023-04-25T02:12:09;6.57;;;4.10;;
4812;SDS011;2420;51.202;8.698;2023-04-25T02:14:35;7.60;;;4.80;;
4812;SDS011;2420;51.202;8.698;2023-04-25T02:17:01;7.68;;;4.57;;
4812;SDS011;2420;51.202;8.698;2023-04-25T02:19:26;7.93;;;4.40;;
4812;SDS011;2420;51.202;8.698;2023-04-25T02:21:52;8.18;;;4.63;;
4812;SDS011;2420;51.202;8.698;2023-04-25T02:24:17;7.88;;;4.10;;
4812;SDS011;2420;51.202;8.698;2023-04-25T02:26:43;7.72;;;4.30;;
4812;SDS011;2420;51.202;8.698;2023-04-25T02:29:09;5.50;;;4.25;;
4812;SDS011;2420;51.202;8.698;2023-04-25T02:31:35;10.32;;;4.80;;
4812;SDS011;2420;51.202;8.698;2023-04-25T02:34:00;9.68;;;4.72;;
4812;SDS011;2420;51.202;8.698;2023-04-25T02:36:26;10.00;;;5.10;;
4812;SDS011;2420;51.202;8.698;2023-04-25T02:38:52;8.68;;;5.50;;
4812;SDS011;2420;51.202;8.698;2023-04-25T02:41:18;7.00;;;4.78;;
4812;SDS011;2420;51.202;8.698;2023-04-25T02:43:43;7.38;;;5.13;;
4812;SDS011;2420;51.202;8.698;2023-04-25T02:46:09;11.32;;;4.97;;
4812;SDS011;2420;51.202;8.698;2023-04-25T02:48:35;6.82;;;4.72;;
4812;SDS011;2420;51.202;8.698;2023-04-25T02:51:00;8.82;;;5.03;;
4812;SDS011;2420;51.202;8.698;2023-04-25T02:53:26;7.88;;;4.80;;
4812;SDS011;2420;51.202;8.698;2023-04-25T02:55:51;9.07;;;5.10;;
4812;SDS011;2420;51.202;8.698;2023-04-25T02:58:17;9.73;;;5.13;;
4812;SDS011;2420;51.202;8.698;2023-04-25T03:00:43;8.35;;;5.32;;
4812;SDS011;2420;51.202;8.698;2023-04-25T03:03:09;9.13;;;5.65;;
4812;SDS011;2420;51.202;8.698;2023-04-25T03:05:34;12.13;;;6.15;;
4812;SDS011;2420;51.202;8.698;2023-04-25T03:08:00;10.45;;;5.85;;
4812;SDS011;2420;51.202;8.698;2023-04-25T03:10:26;12.07;;;6.28;;
4812;SDS011;2420;51.202;8.698;2023-04-25T03:12:51;10.13;;;5.35;;
4812;SDS011;2420;51.202;8.698;2023-04-25T03:15:17;11.82;;;5.90;;
4812;SDS011;2420;51.202;8.698;2023-04-25T03:17:43;11.27;;;5.78;;
4812;SDS011;2420;51.202;8.698;2023-04-25T03:20:09;11.95;;;6.00;;
4812;SDS011;2420;51.202;8.698;2023-04-25T03:22:35;9.73;;;5.47;;
4812;SDS011;2420;51.202;8.698;2023-04-25T03:25:01;9.30;;;5.53;;
4812;SDS011;2420;51.202;8.698;2023-04-25T03:27:27;12.95;;;5.30;;
4812;SDS011;2420;51.202;8.698;2023-04-25T03:29:52;8.32;;;4.90;;
4812;SDS011;2420;51.202;8.698;2023-04-25T03:32:18;8.05;;;4.55;;
4812;SDS011;2420;51.202;8.698;2023-04-25T03:34:43;7.90;;;5.03;;
4812;SDS011;2420;51.202;8.698;2023-04-25T03:37:09;8.93;;;5.35;;
4812;SDS011;2420;51.202;8.698;2023-04-25T03:39:34;8.60;;;4.85;;
4812;SDS011;2420;51.202;8.698;2023-04-25T03:42:00;9.07;;;4.75;;
4812;SDS011;2420;51.202;8.698;2023-04-25T03:44:25;7.95;;;4.75;;
4812;SDS011;2420;51.202;8.698;2023-04-25T03:46:51;7.00;;;5.00;;
4812;SDS011;2420;51.202;8.698;2023-04-25T03:49:17;7.72;;;4.75;;
4812;SDS011;2420;51.202;8.698;2023-04-25T03:51:42;8.15;;;4.60;;
4812;SDS011;2420;51.202;8.698;2023-04-25T03:54:08;8.35;;;4.90;;
4812;SDS011;2420;51.202;8.698;2023-04-25T03:56:33;7.68;;;4.78;;
4812;SDS011;2420;51.202;8.698;2023-04-25T03:58:59;8.05;;;4.60;;
4812;SDS011;2420;51.202;8.698;2023-04-25T04:01:25;8.50;;;4.38;;
4812;SDS011;2420;51.202;8.698;2023-04-25T04:03:51;7.95;;;4.55;;
4812;SDS011;2420;51.202;8.698;2023-04-25T04:06:16;8.35;;;4.53;;
4812;SDS011;2420;51.202;8.698;2023-04-25T04:08:42;7.40;;;4.70;;
4812;SDS011;2420;51.202;8.698;2023-04-25T04:11:07;7.45;;;4.65;;
4812;SDS011;2420;51.202;8.698;2023-04-25T04:13:33;7.72;;;4.72;;
4812;SDS011;2420;51.202;8.698;2023-04-25T04:15:58;9.35;;;5.10;;
4812;SDS011;2420;51.202;8.698;2023-04-25T04:18:24;7.43;;;4.68;;
4812;SDS011;2420;51.202;8.698;2023-04-25T04:20:50;9.70;;;4.75;;
4812;SDS011;2420;51.202;8.698;2023-04-25T04:23:15;9.32;;;4.80;;
4812;SDS011;2420;51.202;8.698;2023-04-25T04:25:41;7.78;;;5.22;;
4812;SDS011;2420;51.202;8.698;2023-04-25T04:28:07;8.63;;;4.65;;
4812;SDS011;2420;51.202;8.698;2023-04-25T04:30:32;6.82;;;4.38;;
4812;SDS011;2420;51.202;8.698;2023-04-25T04:33:01;7.32;;;4.22;;
4812;SDS011;2420;51.202;8.698;2023-04-25T04:35:27;6.68;;;4.80;;
4812;SDS011;2420;51.202;8.698;2023-04-25T04:37:53;6.47;;;4.05;;
4812;SDS011;2420;51.202;8.698;2023-04-25T04:40:19;8.15;;;4.90;;
4812;SDS011;2420;51.202;8.698;2023-04-25T04:42:45;10.45;;;5.78;;
4812;SDS011;2420;51.202;8.698;2023-04-25T04:45:11;4.80;;;3.30;;
4812;SDS011;2420;51.202;8.698;2023-04-25T04:47:38;4.22;;;2.88;;
4812;SDS011;2420;51.202;8.698;2023-04-25T04:50:05;4.75;;;2.80;;
4812;SDS011;2420;51.202;8.698;2023-04-25T04:52:36;3.60;;;2.60;;
4812;SDS011;2420;51.202;8.698;2023-04-25T04:55:02;3.30;;;2.50;;
4812;SDS011;2420;51.202;8.698;2023-04-25T04:57:29;3.80;;;2.45;;
4812;SDS011;2420;51.202;8.698;2023-04-25T04:59:55;3.95;;;2.88;;
4812;SDS011;2420;51.202;8.698;2023-04-25T05:02:21;4.75;;;3.15;;
4812;SDS011;2420;51.202;8.698;2023-04-25T05:04:47;5.82;;;2.88;;
4812;SDS011;2420;51.202;8.698;2023-04-25T05:07:13;3.92;;;2.80;;
4812;SDS011;2420;51.202;8.698;2023-04-25T05:09:38;4.15;;;2.90;;
4812;SDS011;2420;51.202;8.698;2023-04-25T05:12:04;4.60;;;3.05;;
4812;SDS011;2420;51.202;8.698;2023-04-25T05:14:30;3.20;;;2.58;;
4812;SDS011;2420;51.202;8.698;2023-04-25T05:16:55;3.45;;;2.40;;
4812;SDS011;2420;51.202;8.698;2023-04-25T05:19:21;5.18;;;2.65;;
4812;SDS011;2420;51.202;8.698;2023-04-25T05:21:47;13.45;;;6.40;;
4812;SDS011;2420;51.202;8.698;2023-04-25T05:24:12;3.67;;;2.60;;
4812;SDS011;2420;51.202;8.698;2023-04-25T05:26:38;3.05;;;2.50;;
4812;SDS011;2420;51.202;8.698;2023-04-25T05:29:03;3.20;;;2.42;;
4812;SDS011;2420;51.202;8.698;2023-04-25T05:31:30;3.17;;;2.30;;
4812;SDS011;2420;51.202;8.698;2023-04-25T05:33:56;3.38;;;2.22;;
4812;SDS011;2420;51.202;8.698;2023-04-25T05:36:21;3.65;;;2.40;;
4812;SDS011;2420;51.202;8.698;2023-04-25T05:38:47;3.55;;;2.35;;
4812;SDS011;2420;51.202;8.698;2023-04-25T05:41:12;3.40;;;2.30;;
4812;SDS011;2420;51.202;8.698;2023-04-25T05:43:38;3.70;;;2.30;;
4812;SDS011;2420;51.202;8.698;2023-04-25T05:46:03;3.55;;;2.03;;
4812;SDS011;2420;51.202;8.698;2023-04-25T05:48:29;5.78;;;2.15;;
4812;SDS011;2420;51.202;8.698;2023-04-25T05:50:55;4.75;;;2.40;;
4812;SDS011;2420;51.202;8.698;2023-04-25T05:53:21;5.07;;;2.78;;
4812;SDS011;2420;51.202;8.698;2023-04-25T05:55:47;9.23;;;3.00;;
4812;SDS011;2420;51.202;8.698;2023-04-25T05:58:12;5.95;;;2.97;;
4812;SDS011;2420;51.202;8.698;2023-04-25T06:00:38;10.45;;;3.10;;
4812;SDS011;2420;51.202;8.698;2023-04-25T06:03:06;9.73;;;4.05;;
4812;SDS011;2420;51.202;8.698;2023-04-25T06:05:34;9.40;;;3.63;;
4812;SDS011;2420;51.202;8.698;2023-04-25T06:08:00;7.60;;;3.95;;
4812;SDS011;2420;51.202;8.698;2023-04-25T06:10:26;13.73;;;4.60;;
4812;SDS011;2420;51.202;8.698;2023-04-25T06:12:51;7.63;;;3.92;;
4812;SDS011;2420;51.202;8.698;2023-04-25T06:15:17;7.30;;;4.72;;
4812;SDS011;2420;51.202;8.698;2023-04-25T06:17:42;10.40;;;5.35;;
4812;SDS011;2420;51.202;8.698;2023-04-25T06:20:08;10.23;;;4.97;;
4812;SDS011;2420;51.202;8.698;2023-04-25T06:22:34;10.98;;;4.70;;
4812;SDS011;2420;51.202;8.698;2023-04-25T06:25:00;11.57;;;4.53;;
4812;SDS011;2420;51.202;8.698;2023-04-25T06:27:25;12.50;;;4.88;;
4812;SDS011;2420;51.202;8.698;2023-04-25T06:29:51;8.95;;;4.00;;
4812;SDS011;2420;51.202;8.698;2023-04-25T06:32:17;8.60;;;3.70;;
4812;SDS011;2420;51.202;8.698;2023-04-25T06:34:43;9.38;;;4.30;;
4812;SDS011;2420;51.202;8.698;2023-04-25T06:37:08;6.53;;;3.58;;
4812;SDS011;2420;51.202;8.698;2023-04-25T06:39:34;8.32;;;4.50;;
4812;SDS011;2420;51.202;8.698;2023-04-25T06:42:00;11.07;;;4.25;;
4812;SDS011;2420;51.202;8.698;2023-04-25T06:44:25;15.60;;;5.40;;
4812;SDS011;2420;51.202;8.698;2023-04-25T06:46:51;8.82;;;3.60;;
4812;SDS011;2420;51.202;8.698;2023-04-25T06:49:16;9.00;;;3.85;;
4812;SDS011;2420;51.202;8.698;2023-04-25T06:51:42;10.27;;;4.80;;
4812;SDS011;2420;51.202;8.698;2023-04-25T06:54:07;8.18;;;3.35;;
4812;SDS011;2420;51.202;8.698;2023-04-25T06:56:33;9.10;;;3.35;;
4812;SDS011;2420;51.202;8.698;2023-04-25T06:58:59;7.68;;;3.58;;
4812;SDS011;2420;51.202;8.698;2023-04-25T07:01:25;8.57;;;3.40;;
4812;SDS011;2420;51.202;8.698;2023-04-25T07:03:51;8.00;;;4.43;;
4812;SDS011;2420;51.202;8.698;2023-04-25T07:06:16;10.43;;;3.85;;
4812;SDS011;2420;51.202;8.698;2023-04-25T07:08:42;8.40;;;4.10;;
4812;SDS011;2420;51.202;8.698;2023-04-25T07:11:08;9.27;;;3.53;;
4812;SDS011;2420;51.202;8.698;2023-04-25T07:13:33;9.88;;;4.40;;
4812;SDS011;2420;51.202;8.698;2023-04-25T07:15:59;11.68;;;3.67;;
4812;SDS011;2420;51.202;8.698;2023-04-25T07:18:25;10.63;;;3.58;;
4812;SDS011;2420;51.202;8.698;2023-04-25T07:20:50;13.75;;;4.10;;
4812;SDS011;2420;51.202;8.698;2023-04-25T07:23:16;7.85;;;4.18;;
4812;SDS011;2420;51.202;8.698;2023-04-25T07:25:41;13.18;;;4.65;;
4812;SDS011;2420;51.202;8.698;2023-04-25T07:28:07;11.38;;;3.65;;
4812;SDS011;2420;51.202;8.698;2023-04-25T07:30:33;13.40;;;4.90;;
4812;SDS011;2420;51.202;8.698;2023-04-25T07:32:59;14.35;;;4.28;;
4812;SDS011;2420;51.202;8.698;2023-04-25T07:35:25;9.55;;;4.05;;
4812;SDS011;2420;51.202;8.698;2023-04-25T07:37:51;13.80;;;4.22;;
4812;SDS011;2420;51.202;8.698;2023-04-25T07:40:16;11.70;;;4.00;;
4812;SDS011;2420;51.202;8.698;2023-04-25T07:42:42;10.43;;;3.88;;
4812;SDS011;2420;51.202;8.698;2023-04-25T07:45:08;10.10;;;3.83;;
4812;SDS011;2420;51.202;8.698;2023-04-25T07:47:34;8.43;;;3.72;;
4812;SDS011;2420;51.202;8.698;2023-04-25T07:50:00;10.30;;;3.63;;
4812;SDS011;2420;51.202;8.698;2023-04-25T07:52:25;7.18;;;3.28;;
4812;SDS011;2420;51.202;8.698;2023-04-25T07:54:51;11.43;;;4.13;;
4812;SDS011;2420;51.202;8.698;2023-04-25T07:57:17;10.07;;;3.70;;
4812;SDS011;2420;51.202;8.698;2023-04-25T07:59:43;8.25;;;4.32;;
4812;SDS011;2420;51.202;8.698;2023-04-25T08:02:09;9.82;;;4.05;;
4812;SDS011;2420;51.202;8.698;2023-04-25T08:04:34;9.50;;;4.35;;
4812;SDS011;2420;51.202;8.698;2023-04-25T08:07:00;10.63;;;3.80;;
4812;SDS011;2420;51.202;8.698;2023-04-25T08:09:25;10.25;;;4.15;;
4812;SDS011;2420;51.202;8.698;2023-04-25T08:11:51;12.63;;;4.35;;
4812;SDS011;2420;51.202;8.698;2023-04-25T08:14:17;11.05;;;4.10;;
4812;SDS011;2420;51.202;8.698;2023-04-25T08:16:42;12.55;;;3.78;;
4812;SDS011;2420;51.202;8.698;2023-04-25T08:19:08;9.60;;;4.20;;
4812;SDS011;2420;51.202;8.698;2023-04-25T08:21:35;12.23;;;3.50;;
4812;SDS011;2420;51.202;8.698;2023-04-25T08:24:01;8.98;;;3.53;;
4812;SDS011;2420;51.202;8.698;2023-04-25T08:26:27;10.02;;;3.78;;
4812;SDS011;2420;51.202;8.698;2023-04-25T08:28:53;11.00;;;3.63;;
4812;SDS011;2420;51.202;8.698;2023-04-25T08:31:19;6.55;;;3.35;;
4812;SDS011;2420;51.202;8.698;2023-04-25T08:33:45;11.10;;;3.50;;
4812;SDS011;2420;51.202;8.698;2023-04-25T08:36:11;6.82;;;3.60;;
4812;SDS011;2420;51.202;8.698;2023-04-25T08:38:37;12.68;;;4.35;;
4812;SDS011;2420;51.202;8.698;2023-04-25T08:41:02;7.80;;;3.65;;
4812;SDS011;2420;51.202;8.698;2023-04-25T08:43:29;10.43;;;3.75;;
4812;SDS011;2420;51.202;8.698;2023-04-25T08:45:57;10.95;;;3.72;;
4812;SDS011;2420;51.202;8.698;2023-04-25T08:48:25;9.80;;;3.53;;
4812;SDS011;2420;51.202;8.698;2023-04-25T08:50:53;7.38;;;3.22;;
4812;SDS011;2420;51.202;8.698;2023-04-25T08:53:21;11.50;;;3.88;;
4812;SDS011;2420;51.202;8.698;2023-04-25T08:55:51;8.88;;;3.60;;
4812;SDS011;2420;51.202;8.698;2023-04-25T08:58:19;11.90;;;3.95;;
4812;SDS011;2420;51.202;8.698;2023-04-25T09:00:46;7.63;;;3.38;;
4812;SDS011;2420;51.202;8.698;2023-04-25T09:03:12;11.70;;;3.70;;
4812;SDS011;2420;51.202;8.698;2023-04-25T09:05:39;6.55;;;3.53;;
4812;SDS011;2420;51.202;8.698;2023-04-25T09:08:05;8.15;;;3.03;;
4812;SDS011;2420;51.202;8.698;2023-04-25T09:10:31;7.88;;;3.28;;
4812;SDS011;2420;51.202;8.698;2023-04-25T09:13:13;8.52;;;3.00;;
4812;SDS011;2420;51.202;8.698;2023-04-25T09:15:48;6.53;;;3.10;;
4812;SDS011;2420;51.202;8.698;2023-04-25T09:20:50;7.85;;;3.05;;
4812;SDS011;2420;51.202;8.698;2023-04-25T09:23:18;5.40;;;2.63;;
4812;SDS011;2420;51.202;8.698;2023-04-25T09:25:46;7.50;;;2.97;;
4812;SDS011;2420;51.202;8.698;2023-04-25T09:28:13;10.20;;;2.80;;
4812;SDS011;2420;51.202;8.698;2023-04-25T09:30:39;10.10;;;3.15;;
4812;SDS011;2420;51.202;8.698;2023-04-25T09:33:05;8.68;;;2.80;;
4812;SDS011;2420;51.202;8.698;2023-04-25T09:35:36;7.55;;;3.05;;
4812;SDS011;2420;51.202;8.698;2023-04-25T09:40:38;6.63;;;3.03;;
4812;SDS011;2420;51.202;8.698;2023-04-25T09:43:20;5.30;;;2.30;;
4812;SDS011;2420;51.202;8.698;2023-04-25T09:45:46;6.65;;;2.72;;
4812;SDS011;2420;51.202;8.698;2023-04-25T09:48:19;7.05;;;2.70;;
4812;SDS011;2420;51.202;8.698;2023-04-25T09:53:32;9.98;;;3.33;;
4812;SDS011;2420;51.202;8.698;2023-04-25T09:55:59;7.07;;;2.80;;
4812;SDS011;2420;51.202;8.698;2023-04-25T09:58:25;6.50;;;2.83;;
4812;SDS011;2420;51.202;8.698;2023-04-25T10:00:53;8.45;;;3.15;;
4812;SDS011;2420;51.202;8.698;2023-04-25T10:03:24;10.45;;;2.90;;
4812;SDS011;2420;51.202;8.698;2023-04-25T10:05:50;5.60;;;2.67;;
4812;SDS011;2420;51.202;8.698;2023-04-25T10:08:17;7.75;;;2.75;;
4812;SDS011;2420;51.202;8.698;2023-04-25T10:10:43;7.65;;;3.03;;
4812;SDS011;2420;51.202;8.698;2023-04-25T10:13:10;9.75;;;3.10;;
4812;SDS011;2420;51.202;8.698;2023-04-25T10:15:54;5.72;;;2.60;;
4812;SDS011;2420;51.202;8.698;2023-04-25T10:18:21;7.00;;;2.30;;
4812;SDS011;2420;51.202;8.698;2023-04-25T10:20:48;5.80;;;2.47;;
4812;SDS011;2420;51.202;8.698;2023-04-25T10:23:13;7.10;;;2.40;;
4812;SDS011;2420;51.202;8.698;2023-04-25T10:25:40;7.70;;;3.00;;
4812;SDS011;2420;51.202;8.698;2023-04-25T10:28:07;9.38;;;2.70;;
4812;SDS011;2420;51.202;8.698;2023-04-25T10:30:32;5.43;;;2.83;;
4812;SDS011;2420;51.202;8.698;2023-04-25T10:32:58;9.85;;;2.40;;
4812;SDS011;2420;51.202;8.698;2023-04-25T10:35:25;8.32;;;2.47;;
4812;SDS011;2420;51.202;8.698;2023-04-25T10:38:05;4.03;;;2.33;;
4812;SDS011;2420;51.202;8.698;2023-04-25T10:40:34;5.20;;;2.53;;
4812;SDS011;2420;51.202;8.698;2023-04-25T10:45:57;5.03;;;2.55;;
4812;SDS011;2420;51.202;8.698;2023-04-25T10:48:28;6.55;;;2.42;;
4812;SDS011;2420;51.202;8.698;2023-04-25T10:51:08;5.78;;;2.50;;
4812;SDS011;2420;51.202;8.698;2023-04-25T10:53:37;8.90;;;2.92;;
4812;SDS011;2420;51.202;8.698;2023-04-25T10:56:45;8.63;;;2.85;;
4812;SDS011;2420;51.202;8.698;2023-04-25T10:59:02;7.53;;;2.88;;
4812;SDS011;2420;51.202;8.698;2023-04-25T11:01:39;5.85;;;2.90;;
4812;SDS011;2420;51.202;8.698;2023-04-25T11:04:21;6.45;;;2.60;;
4812;SDS011;2420;51.202;8.698;2023-04-25T11:09:16;8.38;;;2.47;;
4812;SDS011;2420;51.202;8.698;2023-04-25T11:11:42;6.25;;;2.60;;
4812;SDS011;2420;51.202;8.698;2023-04-25T11:14:08;5.28;;;2.55;;
4812;SDS011;2420;51.202;8.698;2023-04-25T11:16:36;6.88;;;2.28;;
4812;SDS011;2420;51.202;8.698;2023-04-25T11:19:02;7.85;;;2.80;;
4812;SDS011;2420;51.202;8.698;2023-04-25T11:21:28;7.25;;;2.58;;
4812;SDS011;2420;51.202;8.698;2023-04-25T11:23:56;6.68;;;2.50;;
4812;SDS011;2420;51.202;8.698;2023-04-25T11:26:22;4.55;;;2.60;;
4812;SDS011;2420;51.202;8.698;2023-04-25T11:28:49;8.23;;;2.60;;
4812;SDS011;2420;51.202;8.698;2023-04-25T11:31:15;7.45;;;2.38;;
4812;SDS011;2420;51.202;8.698;2023-04-25T11:33:40;6.88;;;2.50;;
4812;SDS011;2420;51.202;8.698;2023-04-25T11:36:07;7.90;;;2.53;;
4812;SDS011;2420;51.202;8.698;2023-04-25T11:38:35;8.20;;;2.50;;
4812;SDS011;2420;51.202;8.698;2023-04-25T11:41:01;5.50;;;2.55;;
4812;SDS011;2420;51.202;8.698;2023-04-25T11:43:27;6.90;;;2.65;;
4812;SDS011;2420;51.202;8.698;2023-04-25T11:45:53;5.65;;;2.78;;
4812;SDS011;2420;51.202;8.698;2023-04-25T11:48:19;6.25;;;2.50;;
4812;SDS011;2420;51.202;8.698;2023-04-25T11:50:45;8.48;;;1.90;;
4812;SDS011;2420;51.202;8.698;2023-04-25T11:53:10;5.47;;;2.30;;
4812;SDS011;2420;51.202;8.698;2023-04-25T11:55:36;7.50;;;2.50;;
4812;SDS011;2420;51.202;8.698;2023-04-25T11:58:03;5.28;;;2.53;;
4812;SDS011;2420;51.202;8.698;2023-04-25T12:00:29;10.50;;;3.95;;
4812;SDS011;2420;51.202;8.698;2023-04-25T12:02:56;5.60;;;2.92;;
4812;SDS011;2420;51.202;8.698;2023-04-25T12:05:27;7.57;;;3.45;;
4812;SDS011;2420;51.202;8.698;2023-04-25T12:07:57;3.35;;;2.53;;
4812;SDS011;2420;51.202;8.698;2023-04-25T12:10:23;3.97;;;2.65;;
4812;SDS011;2420;51.202;8.698;2023-04-25T12:12:50;4.18;;;2.40;;
4812;SDS011;2420;51.202;8.698;2023-04-25T12:15:16;7.40;;;2.60;;
4812;SDS011;2420;51.202;8.698;2023-04-25T12:17:46;4.53;;;2.40;;
4812;SDS011;2420;51.202;8.698;2023-04-25T12:20:18;5.53;;;2.30;;
4812;SDS011;2420;51.202;8.698;2023-04-25T12:22:46;3.55;;;2.13;;
4812;SDS011;2420;51.202;8.698;2023-04-25T12:25:14;4.90;;;2.15;;
4812;SDS011;2420;51.202;8.698;2023-04-25T12:28:25;4.50;;;2.30;;
4812;SDS011;2420;51.202;8.698;2023-04-25T12:31:04;4.32;;;2.17;;
4812;SDS011;2420;51.202;8.698;2023-04-25T12:33:35;4.20;;;2.45;;
4812;SDS011;2420;51.202;8.698;2023-04-25T12:36:02;11.05;;;3.33;;
4812;SDS011;2420;51.202;8.698;2023-04-25T12:38:39;10.40;;;3.97;;
4812;SDS011;2420;51.202;8.698;2023-04-25T12:41:06;13.20;;;4.80;;
4812;SDS011;2420;51.202;8.698;2023-04-25T12:43:33;8.13;;;3.33;;
4812;SDS011;2420;51.202;8.698;2023-04-25T12:46:01;9.55;;;4.43;;
4812;SDS011;2420;51.202;8.698;2023-04-25T12:48:26;13.70;;;5.40;;
4812;SDS011;2420;51.202;8.698;2023-04-25T12:50:52;9.57;;;4.60;;
4812;SDS011;2420;51.202;8.698;2023-04-25T12:53:18;4.82;;;2.65;;
4812;SDS011;2420;51.202;8.698;2023-04-25T12:55:45;6.95;;;2.78;;
4812;SDS011;2420;51.202;8.698;2023-04-25T12:58:12;5.30;;;2.90;;
4812;SDS011;2420;51.202;8.698;2023-04-25T13:00:42;4.68;;;2.50;;
4812;SDS011;2420;51.202;8.698;2023-04-25T13:03:08;5.18;;;2.70;;
4812;SDS011;2420;51.202;8.698;2023-04-25T13:05:34;5.43;;;2.90;;
4812;SDS011;2420;51.202;8.698;2023-04-25T13:08:00;6.97;;;3.08;;
4812;SDS011;2420;51.202;8.698;2023-04-25T13:10:26;6.55;;;3.28;;
4812;SDS011;2420;51.202;8.698;2023-04-25T13:12:51;5.90;;;2.55;;
4812;SDS011;2420;51.202;8.698;2023-04-25T13:15:17;5.85;;;2.78;;
4812;SDS011;2420;51.202;8.698;2023-04-25T13:17:43;7.22;;;2.67;;
4812;SDS011;2420;51.202;8.698;2023-04-25T13:20:08;5.88;;;2.50;;
4812;SDS011;2420;51.202;8.698;2023-04-25T13:22:35;4.25;;;2.58;;
4812;SDS011;2420;51.202;8.698;2023-04-25T13:25:02;6.00;;;2.47;;
4812;SDS011;2420;51.202;8.698;2023-04-25T13:27:29;6.72;;;2.80;;
4812;SDS011;2420;51.202;8.698;2023-04-25T13:29:55;6.15;;;2.70;;
4812;SDS011;2420;51.202;8.698;2023-04-25T13:32:21;7.28;;;2.80;;
4812;SDS011;2420;51.202;8.698;2023-04-25T13:34:46;6.93;;;2.75;;
4812;SDS011;2420;51.202;8.698;2023-04-25T13:37:12;5.28;;;2.75;;
4812;SDS011;2420;51.202;8.698;2023-04-25T13:39:37;6.15;;;2.83;;
4812;SDS011;2420;51.202;8.698;2023-04-25T13:42:03;4.55;;;2.65;;
4812;SDS011;2420;51.202;8.698;2023-04-25T13:44:29;4.72;;;2.78;;
4812;SDS011;2420;51.202;8.698;2023-04-25T13:46:55;6.32;;;2.72;;
4812;SDS011;2420;51.202;8.698;2023-04-25T13:49:21;5.03;;;2.55;;
4812;SDS011;2420;51.202;8.698;2023-04-25T13:51:47;6.00;;;2.60;;
4812;SDS011;2420;51.202;8.698;2023-04-25T13:54:13;5.78;;;2.70;;
4812;SDS011;2420;51.202;8.698;2023-04-25T13:56:38;8.82;;;2.75;;
4812;SDS011;2420;51.202;8.698;2023-04-25T13:59:06;6.25;;;3.15;;
4812;SDS011;2420;51.202;8.698;2023-04-25T14:01:32;4.68;;;2.70;;
4812;SDS011;2420;51.202;8.698;2023-04-25T14:04:00;5.60;;;3.08;;
4812;SDS011;2420;51.202;8.698;2023-04-25T14:06:26;8.77;;;3.22;;
4812;SDS011;2420;51.202;8.698;2023-04-25T14:08:52;4.80;;;2.80;;
4812;SDS011;2420;51.202;8.698;2023-04-25T14:11:18;9.93;;;2.95;;
4812;SDS011;2420;51.202;8.698;2023-04-25T14:13:45;3.70;;;2.40;;
4812;SDS011;2420;51.202;8.698;2023-04-25T14:16:11;3.70;;;2.20;;
4812;SDS011;2420;51.202;8.698;2023-04-25T14:18:36;8.73;;;2.33;;
4812;SDS011;2420;51.202;8.698;2023-04-25T14:21:02;6.32;;;2.20;;
4812;SDS011;2420;51.202;8.698;2023-04-25T14:23:28;3.17;;;1.83;;
4812;SDS011;2420;51.202;8.698;2023-04-25T14:25:53;6.90;;;2.38;;
4812;SDS011;2420;51.202;8.698;2023-04-25T14:28:19;5.88;;;2.80;;
4812;SDS011;2420;51.202;8.698;2023-04-25T14:30:45;5.55;;;2.05;;
4812;SDS011;2420;51.202;8.698;2023-04-25T14:33:10;3.97;;;2.15;;
4812;SDS011;2420;51.202;8.698;2023-04-25T14:35:36;5.72;;;2.30;;
4812;SDS011;2420;51.202;8.698;2023-04-25T14:38:02;2.40;;;2.00;;
4812;SDS011;2420;51.202;8.698;2023-04-25T14:40:27;3.00;;;1.85;;
4812;SDS011;2420;51.202;8.698;2023-04-25T14:42:53;2.88;;;1.60;;
4812;SDS011;2420;51.202;8.698;2023-04-25T14:45:18;3.53;;;1.58;;
4812;SDS011;2420;51.202;8.698;2023-04-25T14:47:44;3.58;;;1.80;;
4812;SDS011;2420;51.202;8.698;2023-04-25T14:50:10;3.90;;;1.90;;
4812;SDS011;2420;51.202;8.698;2023-04-25T14:52:36;3.30;;;1.90;;
4812;SDS011;2420;51.202;8.698;2023-04-25T14:55:02;4.28;;;2.30;;
4812;SDS011;2420;51.202;8.698;2023-04-25T14:57:31;4.50;;;2.00;;
4812;SDS011;2420;51.202;8.698;2023-04-25T14:59:57;6.88;;;2.70;;
4812;SDS011;2420;51.202;8.698;2023-04-25T15:02:23;4.75;;;1.98;;
4812;SDS011;2420;51.202;8.698;2023-04-25T15:04:50;4.05;;;1.80;;
4812;SDS011;2420;51.202;8.698;2023-04-25T15:07:16;3.15;;;2.58;;
4812;SDS011;2420;51.202;8.698;2023-04-25T15:09:42;5.40;;;2.15;;
4812;SDS011;2420;51.202;8.698;2023-04-25T15:12:07;4.00;;;2.38;;
4812;SDS011;2420;51.202;8.698;2023-04-25T15:14:33;3.55;;;2.03;;
4812;SDS011;2420;51.202;8.698;2023-04-25T15:16:59;3.90;;;2.30;;
4812;SDS011;2420;51.202;8.698;2023-04-25T15:19:25;6.93;;;2.10;;
4812;SDS011;2420;51.202;8.698;2023-04-25T15:21:51;4.00;;;2.33;;